Time;durP1;ratioP1;P1;durP2;ratioP2;P2;SDS_P1;SDS_P2;PMS_P1;PMS_P2;Temp;Humidity;BMP_temperature;BMP_pressure;BME280_temperature;BME280_humidity;BME280_pressure;Samples;Min_cycle;Max_cycle;Signal;HPM_P1;HPM_P2
2022/07/03 06:20:48;;;;;;;27.52;3.05;;;;;;;20.22;58.74;96834.47;2102559;27;20956;-58
2022/07/03 06:21:50;;;;;;;47.83;7.80;;;;;;;20.31;58.38;96824.94;2102429;28;20639;-58
2022/07/03 06:22:51;;;;;;;52.55;4.57;;;;;;;20.42;57.25;96843.47;2095686;28;20220;-58
2022/07/03 06:23:53;;;;;;;48.30;2.95;;;;;;;20.44;56.54;96830.91;2089266;28;20199;-58
2022/07/03 06:24:54;;;;;;;45.42;5.32;;;;;;;20.34;56.12;96841.44;2087852;28;20436;-59
2022/07/03 06:44:04;;;;;;;44.38;5.65;;;;;;;21.25;52.90;96832.25;2098366;27;21104;-58
2022/07/03 06:45:06;;;;;;;48.72;2.90;;;;;;;21.40;53.25;96846.03;2091464;28;20227;-58
2022/07/03 06:46:08;;;;;;;41.88;3.88;;;;;;;21.28;53.05;96854.09;2090735;28;20199;-59
2022/07/03 06:47:09;;;;;;;37.30;4.40;;;;;;;21.31;52.95;96851.16;2090675;28;20235;-59
2022/07/03 06:48:11;;;;;;;39.40;6.97;;;;;;;21.44;52.78;96855.41;2081696;28;20638;-59
2022/07/03 07:05:05;;;;;;;43.17;7.43;;;;;;;21.88;50.13;96857.88;2080717;28;20570;-59
2022/07/03 07:06:07;;;;;;;36.08;6.53;;;;;;;22.01;49.98;96853.19;2076867;28;20221;-59
2022/07/03 07:07:08;;;;;;;32.72;8.43;;;;;;;22.00;50.04;96844.38;2078733;28;20189;-58
2022/07/03 07:08:10;;;;;;;29.00;3.28;;;;;;;22.06;49.57;96852.78;2062479;28;20224;-59
2022/07/03 07:09:11;;;;;;;21.08;2.90;;;;;;;22.13;50.19;96857.44;2069949;28;20653;-59
2022/07/03 07:24:53;;;;;;;38.25;3.20;;;;;;;22.83;46.12;96864.56;2083855;28;20588;-58
2022/07/03 07:25:54;;;;;;;40.63;4.55;;;;;;;22.91;47.28;96861.19;2080834;28;20189;-58
2022/07/03 07:26:56;;;;;;;31.33;4.55;;;;;;;23.15;46.90;96858.94;2081607;28;20204;-58
2022/07/03 07:27:57;;;;;;;28.65;4.00;;;;;;;23.24;46.67;96857.25;2072021;28;20231;-58
2022/07/03 07:28:58;;;;;;;23.02;3.17;;;;;;;23.25;45.96;96863.41;2081900;28;20193;-59
2022/07/03 07:30:00;;;;;;;21.90;2.30;;;;;;;23.05;45.50;96836.78;2076087;28;20201;-59
2022/07/03 07:46:47;;;;;;;37.13;2.75;;;;;;;23.47;42.58;96817.78;2090060;28;20535;-59
2022/07/03 07:47:48;;;;;;;35.75;3.63;;;;;;;23.88;42.29;96857.47;2079419;28;20239;-59
2022/07/03 07:48:50;;;;;;;27.58;3.50;;;;;;;23.80;42.41;96860.06;2094438;28;20192;-60
2022/07/03 07:49:51;;;;;;;22.27;3.38;;;;;;;24.00;43.21;96852.00;2082815;28;20201;-60
2022/07/03 07:50:53;;;;;;;20.92;2.55;;;;;;;24.11;43.20;96857.97;2077378;28;20337;-60
2022/07/03 07:51:54;;;;;;;17.20;1.90;;;;;;;24.08;43.25;96860.09;2078620;28;20197;-60
2022/07/03 08:07:46;;;;;;;35.90;2.80;;;;;;;24.52;38.66;96846.94;2078579;28;20559;-62
2022/07/03 08:08:48;;;;;;;27.73;2.40;;;;;;;24.59;38.60;96856.00;2085433;28;20200;-62
2022/07/03 08:09:52;;;;;;;21.65;1.85;;;;;;;24.69;38.16;96839.94;2083406;28;20193;-62
2022/07/03 08:10:54;;;;;;;19.13;1.77;;;;;;;24.89;37.30;96853.97;2077308;28;20201;-62
2022/07/03 08:11:55;;;;;;;18.48;2.00;;;;;;;24.96;37.99;96848.84;2077944;28;20547;-62
2022/07/03 08:12:57;;;;;;;15.93;1.80;;;;;;;24.84;37.46;96856.25;2071442;28;20232;-63
2022/07/03 08:28:04;;;;;;;28.95;2.05;;;;;;;25.52;37.35;96843.28;2094648;27;20583;-62
2022/07/03 08:29:06;;;;;;;21.75;2.28;;;;;;;25.55;36.79;96849.16;2107810;28;20546;-62
2022/07/03 08:30:08;;;;;;;16.83;1.70;;;;;;;25.54;37.22;96843.97;2098042;28;20674;-62
2022/07/03 08:31:09;;;;;;;27.95;3.65;;;;;;;25.38;36.33;96842.00;2090912;28;20218;-62
2022/07/03 08:32:11;;;;;;;13.27;1.10;;;;;;;25.45;37.75;96845.75;2090541;28;20191;-62
2022/07/03 08:33:12;;;;;;;11.60;1.25;;;;;;;25.62;37.96;96851.19;2089110;28;20222;-63
2022/07/03 08:47:36;;;;;;;29.27;2.30;;;;;;;25.51;36.29;96829.06;2097371;27;20579;-58
2022/07/03 08:48:39;;;;;;;19.77;2.33;;;;;;;25.55;36.20;96842.97;2109750;28;20261;-58
2022/07/03 08:49:42;;;;;;;23.90;2.00;;;;;;;25.37;36.91;96835.84;2108711;28;20609;-58
2022/07/03 08:50:45;;;;;;;18.38;2.28;;;;;;;25.42;37.87;96827.38;2102368;28;20191;-58
2022/07/03 08:51:48;;;;;;;16.33;1.80;;;;;;;25.63;37.37;96837.66;2098669;28;20265;-61
2022/07/03 08:52:50;;;;;;;14.95;1.33;;;;;;;25.66;37.52;96841.84;2086531;28;20394;-63
2022/07/03 08:53:54;;;;;;;17.02;1.33;;;;;;;25.71;36.69;96839.53;2098180;28;20237;-62
2022/07/03 09:09:03;;;;;;;36.13;5.25;;;;;;;26.36;35.43;96838.13;2082827;28;20556;-63
2022/07/03 09:10:08;;;;;;;27.60;2.97;;;;;;;26.03;36.05;96824.63;2078656;28;20224;-62
2022/07/03 09:11:10;;;;;;;19.08;1.70;;;;;;;26.12;37.15;96820.19;2077719;28;20200;-63
2022/07/03 09:12:13;;;;;;;13.48;1.10;;;;;;;26.44;36.93;96840.84;2078755;28;20200;-63
2022/07/03 09:13:15;;;;;;;2250.00;999.90;;;;;;;26.36;36.18;96846.16;2074147;28;20266;-62
2022/07/03 09:14:16;;;;;;;206.10;55.92;;;;;;;26.61;36.22;96846.25;2086400;28;20207;-62
2022/07/03 09:15:18;;;;;;;2250.00;999.90;;;;;;;26.67;35.42;96842.91;2073713;28;20657;-63
2022/07/03 09:16:19;;;;;;;505.38;134.10;;;;;;;26.76;35.33;96838.44;2070368;28;20202;-62
2022/07/03 09:31:42;;;;;;;88.30;26.58;;;;;;;27.85;32.38;96809.50;2085592;28;20550;-62
2022/07/03 09:32:46;;;;;;;77.88;28.27;;;;;;;28.00;33.02;96813.13;2071891;28;20200;-62
2022/07/03 09:33:54;;;;;;;75.90;28.98;;;;;;;28.34;33.35;96838.81;2087715;28;20196;-62
2022/07/03 09:35:15;;;;;;;71.75;29.35;;;;;;;28.13;32.86;96841.28;2082036;28;20202;-62
2022/07/03 09:36:17;;;;;;;73.28;35.78;;;;;;;28.38;33.39;96843.81;2072746;28;20358;-63
2022/07/03 09:37:25;;;;;;;80.25;49.70;;;;;;;28.31;32.67;96844.53;2071103;28;20216;-62
2022/07/03 09:38:27;;;;;;;66.38;36.83;;;;;;;28.26;33.13;96846.91;2070412;28;20222;-62
2022/07/03 09:39:30;;;;;;;71.18;42.17;;;;;;;28.32;32.73;96842.69;2074449;28;20325;-63
2022/07/03 09:40:55;;;;;;;67.30;46.38;;;;;;;28.12;32.44;96839.59;2074546;28;20347;-63
2022/07/03 09:56:59;;;;;;;40.95;20.70;;;;;;;28.87;31.93;96831.97;2083358;28;20549;-62
2022/07/03 09:58:01;;;;;;;42.42;24.40;;;;;;;28.02;33.57;96826.34;2077336;28;20213;-62
2022/07/03 09:59:13;;;;;;;40.55;25.77;;;;;;;28.45;32.83;96831.38;2076974;28;20205;-62
2022/07/03 10:00:22;;;;;;;38.05;20.73;;;;;;;28.75;32.28;96827.00;2074073;28;20204;-62
2022/07/03 10:01:24;;;;;;;34.65;14.85;;;;;;;29.04;31.15;96829.97;2072773;28;20197;-62
2022/07/03 10:02:25;;;;;;;30.98;15.55;;;;;;;28.78;31.34;96833.88;2075419;28;20694;-62
2022/07/03 10:03:27;;;;;;;28.10;12.02;;;;;;;27.85;32.74;96825.59;2071568;28;20284;-62
2022/07/03 10:04:28;;;;;;;28.65;8.25;;;;;;;27.45;32.89;96832.72;2082379;28;20194;-62
2022/07/03 10:05:41;;;;;;;21.77;7.57;;;;;;;27.66;32.56;96833.00;2073554;28;20204;-62
2022/07/03 10:06:59;;;;;;;3.45;0.73;;;;;;;28.54;32.24;96829.47;2071823;28;20205;-62
2022/07/03 10:22:40;;;;;;;4.55;0.80;;;;;;;28.90;30.84;96800.22;2075190;28;20582;-62
2022/07/03 10:23:43;;;;;;;2.63;0.80;;;;;;;28.23;32.29;96820.41;2091204;28;20195;-62
2022/07/03 10:24:47;;;;;;;2.22;0.60;;;;;;;28.38;31.51;96803.56;2086659;28;20230;-62
2022/07/03 10:25:49;;;;;;;2.50;0.70;;;;;;;28.58;32.27;96825.41;2081367;28;20698;-62
2022/07/03 10:26:52;;;;;;;2.53;0.70;;;;;;;28.63;30.79;96817.66;2081648;28;20193;-62
2022/07/03 10:27:55;;;;;;;2.95;0.70;;;;;;;28.01;31.57;96819.31;2074192;28;20220;-62
2022/07/03 10:28:59;;;;;;;3.33;0.70;;;;;;;27.59;33.25;96824.00;2091581;28;20200;-58
2022/07/03 10:30:00;;;;;;;2.95;0.77;;;;;;;27.79;33.00;96807.50;2088403;28;20201;-58
2022/07/03 10:31:02;;;;;;;2.25;0.75;;;;;;;27.48;32.82;96819.81;2084793;28;20673;-58
2022/07/03 10:32:06;;;;;;;2.05;0.70;;;;;;;28.19;32.32;96817.25;2078520;28;20205;-58
2022/07/03 10:33:08;;;;;;;2.15;1.08;;;;;;;28.14;32.12;96826.84;2078408;28;20769;-58
2022/07/03 10:34:10;;;;;;;1.65;0.70;;;;;;;28.30;32.10;96809.81;2093631;28;20199;-58
2022/07/03 10:50:06;;;;;;;1.73;0.70;;;;;;;30.13;31.13;96813.41;2084849;28;20564;-58
2022/07/03 10:51:12;;;;;;;2.38;0.70;;;;;;;29.73;30.88;96807.50;2082831;28;20201;-58
2022/07/03 10:52:17;;;;;;;2.60;0.90;;;;;;;29.66;31.73;96815.44;2080970;28;20193;-59
2022/07/03 10:53:23;;;;;;;2.05;0.60;;;;;;;30.25;31.93;96811.91;2070380;28;20228;-59
2022/07/03 10:54:25;;;;;;;1.63;0.60;;;;;;;30.87;31.68;96806.16;2076746;28;20202;-59
2022/07/03 10:55:27;;;;;;;1.50;0.70;;;;;;;30.93;28.98;96810.75;2074031;28;20194;-59
2022/07/03 10:56:28;;;;;;;1.95;0.73;;;;;;;30.85;29.46;96808.22;2074975;28;20738;-59
2022/07/03 10:57:30;;;;;;;1.60;0.70;;;;;;;30.87;29.43;96806.97;2074866;28;20205;-59
2022/07/03 10:58:32;;;;;;;3.30;0.77;;;;;;;30.12;29.27;96744.47;2069256;28;20201;-59
2022/07/03 10:59:34;;;;;;;2.20;0.90;;;;;;;30.58;29.55;96814.16;2071324;28;21126;-59
2022/07/03 11:00:56;;;;;;;1.40;0.70;;;;;;;30.41;29.49;96813.53;2073823;28;20434;-59
2022/07/03 11:02:21;;;;;;;1.40;0.70;;;;;;;30.31;30.32;96807.63;2073940;28;20424;-60
2022/07/03 11:04:13;;;;;;;1.67;0.80;;;;;;;30.89;30.14;96807.63;2071504;28;20465;-62
2022/07/03 11:05:23;;;;;;;1.77;0.60;;;;;;;30.81;29.41;96806.94;2049396;28;20442;-63
2022/07/03 11:06:42;;;;;;;1.67;0.70;;;;;;;31.23;30.14;96805.25;2067202;28;20945;-63
2022/07/03 11:07:49;;;;;;;1.50;0.67;;;;;;;31.09;29.94;96805.13;2065660;28;20426;-64
2022/07/03 11:09:04;;;;;;;1.10;0.60;;;;;;;31.39;28.86;96799.56;2084704;28;20931;-63
2022/07/03 11:26:07;;;;;;;1.30;0.70;;;;;;;32.72;28.01;96798.50;2105953;27;20553;-63
2022/07/03 11:27:28;;;;;;;4.00;0.70;;;;;;;32.91;28.07;96793.34;2105028;28;20411;-61
2022/07/03 11:28:32;;;;;;;5.33;0.90;;;;;;;33.08;27.19;96790.22;2090072;28;20435;-63
2022/07/03 11:29:36;;;;;;;2.37;0.70;;;;;;;33.09;27.71;96794.59;2098068;28;20515;-62
2022/07/03 11:32:52;;;;;;;1.30;0.70;;;;;;;32.23;28.16;96786.13;2099773;28;20489;-62
2022/07/03 11:33:53;;;;;;;1.47;0.90;;;;;;;32.93;28.76;96793.16;2098952;28;20497;-62
2022/07/03 11:34:55;;;;;;;1.10;0.60;;;;;;;33.19;28.01;96784.19;2097149;28;20436;-63
2022/07/03 11:35:56;;;;;;;1.50;0.60;;;;;;;32.80;27.26;96785.84;2100752;28;20431;-62
2022/07/03 11:36:58;;;;;;;1.30;0.70;;;;;;;32.75;26.92;96775.66;2101023;28;20424;-63
2022/07/03 11:38:00;;;;;;;1.30;0.70;;;;;;;33.39;27.13;96783.38;2098948;28;20460;-63
2022/07/03 11:39:05;;;;;;;1.80;0.80;;;;;;;33.61;26.48;96781.25;2093194;28;20549;-63
2022/07/03 11:40:06;;;;;;;1.30;0.60;;;;;;;33.44;26.46;96779.00;2105174;28;20423;-63
2022/07/03 11:41:10;;;;;;;2.20;0.70;;;;;;;33.44;26.41;96787.09;2104398;28;20430;-63
2022/07/03 11:42:12;;;;;;;1.10;0.60;;;;;;;33.30;26.34;96785.47;2097311;28;20424;-63
2022/07/03 11:43:13;;;;;;;1.20;0.60;;;;;;;32.86;27.65;96783.16;2095100;28;20462;-64
2022/07/03 11:44:18;;;;;;;1.10;0.60;;;;;;;32.76;27.68;96773.78;2103593;28;20907;-63
2022/07/03 11:45:20;;;;;;;2.07;0.60;;;;;;;33.29;27.29;96779.22;2097832;28;20425;-62
2022/07/03 11:46:26;;;;;;;1.70;0.70;;;;;;;33.69;27.41;96781.84;2097621;28;20970;-61
2022/07/03 11:47:28;;;;;;;1.47;0.70;;;;;;;33.82;26.16;96777.47;2097731;28;20463;-62
2022/07/03 11:48:30;;;;;;;2.57;0.70;;;;;;;33.43;25.61;96779.22;2091740;28;20800;-62
2022/07/03 11:49:33;;;;;;;1.67;0.60;;;;;;;32.31;27.37;96763.50;2101269;28;20498;-62
2022/07/03 11:50:42;;;;;;;1.40;0.80;;;;;;;31.94;28.09;96773.75;2098199;28;20427;-62
2022/07/03 11:52:04;;;;;;;1.20;0.60;;;;;;;31.93;27.97;96780.97;2096611;28;20456;-62
2022/07/03 11:53:27;;;;;;;1.90;0.80;;;;;;;32.21;27.43;96778.25;2090149;28;20469;-63
2022/07/03 11:54:48;;;;;;;1.53;0.87;;;;;;;32.60;27.05;96772.31;2107109;28;20422;-63
2022/07/03 11:55:57;;;;;;;1.50;0.80;;;;;;;33.33;26.91;96763.41;2099494;28;20423;-63
2022/07/03 11:57:01;;;;;;;1.00;0.60;;;;;;;33.44;26.79;96772.75;2098618;28;21123;-62
2022/07/03 11:58:03;;;;;;;1.43;0.70;;;;;;;33.61;26.12;96732.53;2099095;28;20499;-63
2022/07/03 11:59:05;;;;;;;4.90;1.00;;;;;;;34.04;25.52;96771.78;2101057;28;20435;-63
2022/07/03 12:00:08;;;;;;;3.10;0.87;;;;;;;33.23;26.03;96717.84;2101288;28;20420;-64
2022/07/03 12:01:30;;;;;;;1.00;0.50;;;;;;;32.15;26.99;96764.66;2102609;28;20820;-63
2022/07/03 12:20:48;;;;;;;2.20;0.93;;;;;;;33.26;28.05;96751.75;2116641;27;21084;-62
2022/07/03 12:21:50;;;;;;;1.57;0.80;;;;;;;33.97;27.74;96750.97;2111946;28;20415;-62
2022/07/03 12:22:52;;;;;;;1.50;0.70;;;;;;;33.92;26.83;96756.19;2097819;28;20460;-63
2022/07/03 12:23:55;;;;;;;2.00;0.70;;;;;;;33.95;26.54;96753.03;2103036;28;20425;-62
2022/07/03 12:25:04;;;;;;;1.87;0.70;;;;;;;33.34;27.04;96751.53;2099262;28;20902;-62
2022/07/03 12:26:06;;;;;;;2.23;0.87;;;;;;;33.87;26.74;96752.47;2095146;28;20425;-62
2022/07/03 12:27:07;;;;;;;1.50;0.70;;;;;;;33.82;26.49;96753.94;2095064;28;20432;-62
2022/07/03 12:28:10;;;;;;;3.33;0.80;;;;;;;33.28;25.74;96755.94;2095062;28;20463;-62
2022/07/03 12:29:14;;;;;;;2.27;0.53;;;;;;;32.92;26.53;96727.41;2110160;28;20438;-62
2022/07/03 12:30:26;;;;;;;2.50;0.60;;;;;;;32.54;28.09;96752.31;2104955;28;20537;-62
2022/07/03 12:31:29;;;;;;;7.40;1.00;;;;;;;33.42;27.33;96751.34;2103555;28;20420;-62
2022/07/03 12:32:31;;;;;;;2.33;0.60;;;;;;;33.70;27.17;96752.94;2093098;28;20480;-62
2022/07/03 12:33:35;;;;;;;2.20;0.63;;;;;;;33.77;26.54;96748.31;2110663;28;20423;-62
2022/07/03 12:34:37;;;;;;;2.33;0.83;;;;;;;33.93;27.02;96749.75;2110093;28;20438;-63
2022/07/03 12:35:39;;;;;;;12.53;0.70;;;;;;;34.20;25.71;96749.59;2103550;28;20424;-62
2022/07/03 12:36:54;;;;;;;1.20;0.60;;;;;;;33.82;26.76;96726.03;2102873;28;20451;-62
2022/07/03 12:37:55;;;;;;;2.60;1.10;;;;;;;34.43;26.19;96742.84;2096498;28;20506;-62
2022/07/03 12:38:59;;;;;;;1.30;0.70;;;;;;;34.04;26.24;96747.41;2109686;28;20426;-62
2022/07/03 12:40:01;;;;;;;1.60;0.80;;;;;;;34.07;26.67;96755.94;2105264;28;20439;-62
2022/07/03 12:41:03;;;;;;;1.53;0.70;;;;;;;32.51;26.78;96750.03;2102150;28;20430;-62
2022/07/03 12:42:13;;;;;;;2.53;0.70;;;;;;;33.21;26.85;96739.66;2103283;28;20459;-62
2022/07/03 12:43:15;;;;;;;1.37;0.70;;;;;;;32.55;26.76;96740.47;2097456;28;20466;-61
2022/07/03 12:44:20;;;;;;;1.37;0.60;;;;;;;32.32;27.23;96703.88;2225899;22;20425;-59
2022/07/03 13:00:16;;;;;;;1.57;0.80;;;;;;;33.80;26.58;96711.84;2099926;27;20542;-68
2022/07/03 13:01:29;;;;;;;1.20;0.60;;;;;;;33.48;27.01;96720.69;2099644;28;20468;-68
2022/07/03 13:02:32;;;;;;;1.57;0.77;;;;;;;33.97;26.68;96723.88;2095381;28;20846;-68
2022/07/03 13:03:39;;;;;;;1.20;0.60;;;;;;;33.76;26.79;96726.88;2080647;28;20435;-68
2022/07/03 13:04:42;;;;;;;2.20;0.70;;;;;;;33.98;27.12;96722.00;2078957;28;20483;-69
2022/07/03 13:05:44;;;;;;;2.17;0.70;;;;;;;33.76;27.33;96729.56;2079658;28;20781;-69
2022/07/03 13:06:46;;;;;;;1.17;0.60;;;;;;;34.04;27.15;96728.44;2082126;28;20425;-68
2022/07/03 13:07:52;;;;;;;1.20;0.60;;;;;;;33.91;26.44;96713.91;2083898;28;20909;-68
2022/07/03 13:09:00;;;;;;;1.53;0.80;;;;;;;34.17;26.48;96712.94;2081532;28;20426;-68
2022/07/03 13:10:02;;;;;;;1.47;0.50;;;;;;;33.76;26.01;96716.84;2083926;28;20493;-68
2022/07/03 13:11:04;;;;;;;2.23;0.73;;;;;;;33.20;26.89;96716.38;2092264;28;20454;-69
2022/07/03 13:12:05;;;;;;;1.63;0.60;;;;;;;33.36;27.29;96719.72;2086998;28;20456;-68
2022/07/03 13:13:07;;;;;;;1.77;0.77;;;;;;;33.31;27.41;96716.81;2086400;28;20490;-70
2022/07/03 13:14:13;;;;;;;1.20;0.60;;;;;;;33.99;26.71;96721.81;2086682;28;20433;-68
2022/07/03 13:15:16;;;;;;;2.43;0.83;;;;;;;33.70;27.02;96720.44;2089866;28;20428;-68
2022/07/03 13:16:25;;;;;;;1.00;0.50;;;;;;;34.27;26.15;96725.19;2093311;28;20440;-69
2022/07/03 13:17:54;;;;;;;3.37;0.80;;;;;;;34.55;26.13;96722.13;2089628;28;20428;-68
2022/07/03 13:18:59;;;;;;;3.37;0.77;;;;;;;34.26;26.30;96715.38;2089317;28;20445;-69
2022/07/03 13:20:01;;;;;;;1.47;0.70;;;;;;;34.23;26.47;96716.66;2087402;28;20488;-68
2022/07/03 13:21:02;;;;;;;1.60;0.70;;;;;;;34.48;25.88;96710.50;2088130;28;20428;-69
2022/07/03 13:22:04;;;;;;;1.93;0.70;;;;;;;34.18;26.17;96708.34;2089011;28;20437;-68
2022/07/03 13:23:06;;;;;;;2.70;0.90;;;;;;;33.85;26.36;96712.06;2090430;28;20455;-68
2022/07/03 13:24:08;;;;;;;1.20;0.70;;;;;;;33.75;27.02;96714.38;2088160;28;20414;-68
2022/07/03 13:25:09;;;;;;;7.47;0.63;;;;;;;33.28;27.68;96714.50;2088369;28;20428;-68
2022/07/03 13:26:10;;;;;;;1.37;0.80;;;;;;;33.73;25.92;96716.47;2089564;28;20425;-68
2022/07/03 13:27:12;;;;;;;1.43;0.70;;;;;;;33.81;25.19;96716.25;2090729;28;21132;-68
2022/07/03 13:28:14;;;;;;;1.47;0.80;;;;;;;33.40;26.41;96714.72;2089758;28;20535;-67
2022/07/03 13:29:16;;;;;;;1.20;0.60;;;;;;;33.28;26.92;96703.69;2088207;28;20463;-68
2022/07/03 13:30:19;;;;;;;1.10;0.57;;;;;;;32.96;26.94;96706.22;2088152;28;20424;-68
2022/07/03 13:46:43;;;;;;;1.30;0.53;;;;;;;34.02;25.58;96705.09;2082947;28;20553;-68
2022/07/03 13:47:51;;;;;;;1.40;0.70;;;;;;;33.76;26.10;96714.16;2075031;28;20451;-68
2022/07/03 13:48:53;;;;;;;3.40;0.80;;;;;;;33.81;25.53;96700.00;2069026;28;20442;-68
2022/07/03 13:49:55;;;;;;;2.90;0.73;;;;;;;34.09;26.46;96713.19;2070714;28;20419;-68
2022/07/03 13:50:56;;;;;;;3.30;1.20;;;;;;;34.36;25.14;96713.09;2069833;28;20442;-68
2022/07/03 13:51:58;;;;;;;1.00;0.60;;;;;;;34.12;25.57;96701.09;2070527;28;20431;-68
2022/07/03 13:53:00;;;;;;;2.80;0.80;;;;;;;34.12;25.65;96701.09;2070261;28;20462;-69
2022/07/03 13:54:01;;;;;;;1.87;0.60;;;;;;;34.31;25.88;96702.88;2069848;28;20432;-68
2022/07/03 13:55:04;;;;;;;3.83;0.70;;;;;;;34.38;24.58;96692.00;2069688;28;20450;-68
2022/07/03 13:56:06;;;;;;;1.10;0.60;;;;;;;34.56;24.70;96701.25;2070505;28;20419;-69
2022/07/03 13:57:07;;;;;;;2.70;0.70;;;;;;;34.72;24.79;96694.47;2070640;28;20438;-68
2022/07/03 13:58:09;;;;;;;1.30;0.63;;;;;;;34.39;25.11;96698.28;2070217;28;20911;-68
2022/07/03 13:59:11;;;;;;;4.03;0.80;;;;;;;34.86;24.75;96696.03;2070695;28;20431;-69
2022/07/03 14:00:13;;;;;;;1.50;0.70;;;;;;;34.52;24.89;96691.91;2070599;28;21017;-69
2022/07/03 14:01:15;;;;;;;1.93;0.80;;;;;;;34.05;25.71;96693.00;2070526;28;20423;-68
2022/07/03 14:02:17;;;;;;;1.20;0.70;;;;;;;33.49;26.08;96699.91;2070686;28;20883;-68
2022/07/03 14:03:18;;;;;;;1.10;0.70;;;;;;;33.80;26.44;96701.88;2070110;28;20466;-68
2022/07/03 14:04:20;;;;;;;1.00;0.60;;;;;;;34.64;25.44;96690.13;2070546;28;20459;-69
2022/07/03 14:05:22;;;;;;;2.20;0.83;;;;;;;34.17;25.55;96696.69;2070616;28;20423;-67
2022/07/03 14:06:23;;;;;;;2.67;1.30;;;;;;;34.18;25.71;96695.66;2069800;28;20859;-68
2022/07/03 14:07:25;;;;;;;1.10;0.60;;;;;;;34.33;24.98;96702.63;2069820;28;20435;-68
2022/07/03 14:08:26;;;;;;;1.23;0.60;;;;;;;34.03;24.75;96700.53;2070081;28;20451;-69
2022/07/03 14:09:27;;;;;;;4.27;1.97;;;;;;;34.11;24.96;96696.75;2068842;28;20922;-69
2022/07/03 14:10:29;;;;;;;2.10;1.07;;;;;;;34.34;24.72;96699.72;2070555;28;20423;-69
2022/07/03 14:11:30;;;;;;;2.60;1.57;;;;;;;33.74;25.25;96696.47;2070533;28;20423;-68
2022/07/03 14:12:32;;;;;;;2.93;1.10;;;;;;;33.77;25.47;96696.88;2069442;28;20426;-69
2022/07/03 14:13:33;;;;;;;2.60;0.97;;;;;;;34.51;25.18;96704.63;2069550;28;20442;-68
2022/07/03 14:14:35;;;;;;;1.50;0.90;;;;;;;34.38;24.73;96697.41;2070713;28;20437;-69
2022/07/03 14:15:36;;;;;;;2.33;0.83;;;;;;;34.29;25.06;96693.28;2070551;28;20434;-68
2022/07/03 14:16:38;;;;;;;3.07;0.77;;;;;;;34.11;24.90;96697.56;2070595;28;20994;-68
2022/07/03 14:17:39;;;;;;;1.20;0.60;;;;;;;33.79;25.82;96702.91;2070094;28;20740;-68
2022/07/03 14:18:41;;;;;;;1.70;0.83;;;;;;;33.51;25.77;96697.81;2070436;28;20427;-68
2022/07/03 14:19:43;;;;;;;4.50;0.83;;;;;;;33.18;26.01;96699.53;2069876;28;20467;-68
2022/07/03 14:20:44;;;;;;;2.20;0.77;;;;;;;33.43;25.56;96689.91;2069573;28;20424;-68
2022/07/03 14:21:46;;;;;;;1.70;0.80;;;;;;;33.87;25.79;96699.16;2070143;28;20427;-68
2022/07/03 14:22:47;;;;;;;2.20;0.70;;;;;;;33.73;26.58;96700.22;2070074;28;20446;-67
2022/07/03 14:23:51;;;;;;;6.67;0.70;;;;;;;33.49;26.39;96691.78;2070417;28;20479;-69
2022/07/03 14:24:53;;;;;;;2.17;0.77;;;;;;;33.68;26.47;96698.16;2070458;28;20424;-68
2022/07/03 14:25:54;;;;;;;2.87;1.00;;;;;;;33.56;26.40;96700.72;2077819;28;20913;-68
2022/07/03 14:32:33;;;;;;;1.10;0.60;;;;;;;33.86;25.73;96694.78;2069885;28;20442;-68
2022/07/03 14:33:35;;;;;;;1.37;0.60;;;;;;;33.95;25.53;96698.06;2069997;28;20828;-68
2022/07/03 14:34:37;;;;;;;1.43;0.70;;;;;;;33.50;26.38;96694.25;2070227;28;20449;-68
2022/07/03 14:35:38;;;;;;;1.00;0.50;;;;;;;33.14;26.90;96697.44;2069936;28;20431;-68
2022/07/03 14:36:39;;;;;;;1.27;0.57;;;;;;;33.69;26.30;96695.22;2069624;28;20427;-68
2022/07/03 14:37:45;;;;;;;2.97;0.70;;;;;;;34.03;25.53;96700.53;2068958;28;20428;-68
2022/07/03 14:38:47;;;;;;;2.03;0.70;;;;;;;34.06;25.62;96693.84;2070211;28;20840;-68
2022/07/03 14:39:49;;;;;;;4.20;0.70;;;;;;;33.89;25.66;96699.78;2074034;28;20476;-69
2022/07/03 14:40:51;;;;;;;5.33;0.73;;;;;;;34.15;24.93;96685.25;2073780;28;20431;-69
2022/07/03 14:41:53;;;;;;;1.30;0.70;;;;;;;34.16;25.11;96691.50;2070267;28;20434;-68
2022/07/03 14:42:56;;;;;;;1.37;0.77;;;;;;;33.97;25.15;96688.69;2069256;28;20455;-67
2022/07/03 14:43:58;;;;;;;1.20;0.60;;;;;;;33.90;25.67;96682.47;2069688;28;20431;-68
2022/07/03 14:44:59;;;;;;;7.73;1.10;;;;;;;34.18;24.88;96686.69;2069726;28;20438;-68
2022/07/03 14:46:00;;;;;;;2.20;1.00;;;;;;;34.45;24.88;96691.94;2069405;28;20442;-68
2022/07/03 14:47:02;;;;;;;2.10;0.60;;;;;;;33.50;26.10;96688.84;2068882;28;20458;-68
2022/07/03 14:48:05;;;;;;;1.60;0.60;;;;;;;33.32;27.02;96688.69;2069813;28;20455;-68
2022/07/03 14:49:06;;;;;;;1.40;0.70;;;;;;;33.90;26.30;96696.00;2069680;28;21473;-68
2022/07/03 14:50:08;;;;;;;1.10;0.50;;;;;;;33.80;26.33;96695.59;2070348;28;20462;-68
2022/07/03 14:51:10;;;;;;;1.20;0.70;;;;;;;33.74;26.33;96693.75;2068520;28;20424;-69
2022/07/03 14:52:11;;;;;;;2.30;0.70;;;;;;;33.44;26.40;96686.19;2070372;28;20488;-69
2022/07/03 14:53:13;;;;;;;2.70;0.70;;;;;;;33.25;26.36;96695.97;2069791;28;20455;-68
2022/07/03 14:54:17;;;;;;;2.23;0.70;;;;;;;33.57;25.98;96688.81;2070144;28;20432;-68
2022/07/03 14:55:19;;;;;;;1.00;0.60;;;;;;;33.96;26.25;96689.72;2070132;28;20906;-68
2022/07/03 14:56:21;;;;;;;1.30;0.63;;;;;;;33.70;26.13;96696.09;2069664;28;20427;-68
2022/07/03 14:57:35;;;;;;;2.90;0.70;;;;;;;33.85;25.76;96695.81;2069089;28;20980;-68
2022/07/03 14:58:39;;;;;;;1.87;1.03;;;;;;;33.14;26.66;96698.28;2064088;28;20440;-68
2022/07/03 14:59:46;;;;;;;3.00;1.30;;;;;;;33.62;26.71;96691.72;2064751;28;20431;-68
2022/07/03 15:00:50;;;;;;;3.67;1.10;;;;;;;33.06;26.40;96690.38;2064537;28;20436;-69
2022/07/03 15:01:56;;;;;;;7.93;1.57;;;;;;;33.46;26.34;96681.38;2062430;28;20424;-69
2022/07/03 15:03:06;;;;;;;4.50;0.90;;;;;;;34.16;25.79;96689.63;2064388;28;20468;-68
2022/07/03 15:04:21;;;;;;;2.43;0.70;;;;;;;33.91;25.39;96692.25;2064631;28;20491;-69
2022/07/03 15:05:26;;;;;;;3.73;0.80;;;;;;;33.75;25.83;96688.16;2064271;28;20430;-68
2022/07/03 15:06:29;;;;;;;1.40;0.77;;;;;;;33.74;25.49;96682.91;2064758;28;20436;-68
2022/07/03 15:07:36;;;;;;;1.30;0.90;;;;;;;33.15;25.94;96681.00;2055567;28;20435;-68
2022/07/03 15:08:47;;;;;;;1.97;0.70;;;;;;;33.50;26.35;96677.22;2064653;28;20921;-68
2022/07/03 15:10:05;;;;;;;1.40;0.80;;;;;;;33.27;26.61;96681.19;2064759;28;20435;-68
2022/07/03 15:12:26;;;;;;;1.27;0.70;;;;;;;33.05;25.78;96677.91;2064438;28;21132;-68
2022/07/03 15:12:37;;;;;;;2.13;0.70;;;;;;;33.34;25.88;96682.06;2063858;28;20435;-68
2022/07/03 15:13:38;;;;;;;1.33;0.60;;;;;;;33.44;25.62;96678.88;2064300;28;20420;-68
2022/07/03 15:14:43;;;;;;;1.90;0.80;;;;;;;33.60;25.73;96676.72;2062095;28;20775;-68
2022/07/03 15:15:48;;;;;;;1.70;0.80;;;;;;;33.51;25.85;96674.28;2064050;28;20938;-68
2022/07/03 15:16:52;;;;;;;1.93;0.70;;;;;;;33.91;25.60;96677.91;2064001;28;20480;-68
2022/07/03 15:17:54;;;;;;;2.73;0.77;;;;;;;33.85;25.23;96664.19;2063718;28;20452;-69
2022/07/03 15:18:59;;;;;;;3.60;0.70;;;;;;;33.51;25.59;96673.47;2064649;28;20443;-68
2022/07/03 15:20:03;;;;;;;2.50;0.70;;;;;;;33.73;25.38;96678.59;2064683;28;20425;-68
2022/07/03 15:21:04;;;;;;;1.37;0.70;;;;;;;33.96;25.30;96675.38;2063180;28;20427;-68
2022/07/03 15:22:07;;;;;;;1.10;0.60;;;;;;;33.76;25.42;96676.25;2064665;28;20438;-67
2022/07/03 15:23:09;;;;;;;1.70;0.80;;;;;;;33.24;25.89;96675.38;2064035;28;20455;-68
2022/07/03 15:24:12;;;;;;;2.13;0.70;;;;;;;33.27;25.29;96670.38;2064126;28;20427;-68
2022/07/03 15:25:18;;;;;;;1.27;0.60;;;;;;;33.54;25.38;96676.56;2064312;28;20907;-68
2022/07/03 15:26:20;;;;;;;1.73;0.50;;;;;;;33.46;26.30;96673.25;2063782;28;20431;-68
2022/07/03 15:27:23;;;;;;;1.93;0.60;;;;;;;33.32;26.29;96669.75;2064643;28;20533;-68
2022/07/03 15:28:26;;;;;;;7.10;0.87;;;;;;;33.25;25.33;96675.16;2063933;28;20482;-68
2022/07/03 15:29:27;;;;;;;2.37;0.80;;;;;;;33.42;25.52;96669.31;2064653;28;20942;-68
2022/07/03 15:30:30;;;;;;;6.70;0.70;;;;;;;33.50;25.55;96671.81;2064625;28;20459;-68
2022/07/03 15:31:35;;;;;;;1.20;0.70;;;;;;;33.60;25.74;96668.63;2063702;28;21263;-67
2022/07/03 15:32:37;;;;;;;1.20;0.70;;;;;;;33.81;25.31;96667.53;2063070;28;20432;-68
2022/07/03 15:33:38;;;;;;;2.50;0.83;;;;;;;33.82;26.07;96663.78;2062735;28;20432;-68